Time;durP1;ratioP1;P1;durP2;ratioP2;P2;SDS_P1;SDS_P2;PMS_P1;PMS_P2;Temp;Humidity;BMP_temperature;BMP_pressure;BME280_temperature;BME280_humidity;BME280_pressure;Samples;Min_cycle;Max_cycle;Signal;HPM_P1;HPM_P2
2023/08/21 00:00:54;;;;;;;13.83;4.13;;;;;;;;;;5050576;28;20033;-66
2023/08/21 00:03:19;;;;;;;4.82;3.05;;;;;;;;;;5052328;28;20020;-66
2023/08/21 00:05:44;;;;;;;6.20;3.70;;;;;;;;;;5051394;28;20057;-66
2023/08/21 00:08:09;;;;;;;4.47;3.27;;;;;;;;;;5050740;28;20442;-65
2023/08/21 00:10:37;;;;;;;5.77;3.87;;;;;;;;;;5050495;28;20067;-65
2023/08/21 00:13:02;;;;;;;8.55;3.38;;;;;;;;;;5052303;28;20023;-64
2023/08/21 00:15:27;;;;;;;12.70;4.07;;;;;;;;;;5050278;28;20037;-63
2023/08/21 00:17:52;;;;;;;5.10;3.80;;;;;;;;;;5052269;28;20423;-64
2023/08/21 00:20:18;;;;;;;4.83;3.33;;;;;;;;;;5050379;28;20037;-63
2023/08/21 00:22:43;;;;;;;5.28;3.83;;;;;;;;;;5052130;28;20033;-63
2023/08/21 00:25:08;;;;;;;5.68;3.63;;;;;;;;;;5050641;28;20375;-63
2023/08/21 00:27:34;;;;;;;6.17;4.13;;;;;;;;;;5052182;28;20024;-63
2023/08/21 00:30:00;;;;;;;6.63;3.90;;;;;;;;;;5051650;28;20021;-64
2023/08/21 00:32:25;;;;;;;4.50;3.38;;;;;;;;;;5050303;28;20112;-65
2023/08/21 00:34:50;;;;;;;3.83;2.77;;;;;;;;;;5052012;28;20095;-65
2023/08/21 00:37:15;;;;;;;5.30;3.58;;;;;;;;;;5048595;28;20504;-63
2023/08/21 00:39:40;;;;;;;6.38;3.45;;;;;;;;;;5052023;28;20017;-64
2023/08/21 00:42:07;;;;;;;6.23;2.60;;;;;;;;;;5050502;28;20040;-63
2023/08/21 00:44:32;;;;;;;8.65;3.72;;;;;;;;;;5051412;28;20427;-63
2023/08/21 00:46:57;;;;;;;7.90;3.17;;;;;;;;;;5048984;28;20032;-68
2023/08/21 00:49:22;;;;;;;7.70;3.77;;;;;;;;;;5051211;28;20437;-68
2023/08/21 00:51:48;;;;;;;21.90;5.40;;;;;;;;;;5049591;28;20048;-65
2023/08/21 00:54:13;;;;;;;6.45;3.10;;;;;;;;;;5051495;28;21063;-66
2023/08/21 00:56:39;;;;;;;7.40;3.33;;;;;;;;;;5049968;28;20538;-65
2023/08/21 00:59:04;;;;;;;6.22;3.67;;;;;;;;;;5051424;28;20415;-64
2023/08/21 01:01:29;;;;;;;8.75;3.00;;;;;;;;;;5049911;28;20472;-64
2023/08/21 01:03:54;;;;;;;6.60;3.30;;;;;;;;;;5051709;28;20021;-66
2023/08/21 01:06:20;;;;;;;9.93;3.22;;;;;;;;;;5049259;28;20033;-65
2023/08/21 01:09:06;;;;;;;8.93;2.50;;;;;;;;;;5051215;28;20028;-64
2023/08/21 01:11:35;;;;;;;8.93;3.83;;;;;;;;;;5049704;28;20033;-64
2023/08/21 01:14:08;;;;;;;3.55;2.88;;;;;;;;;;5050786;28;20017;-64
2023/08/21 01:16:34;;;;;;;8.43;4.10;;;;;;;;;;5049462;28;20041;-64
2023/08/21 01:19:01;;;;;;;7.70;3.05;;;;;;;;;;5050510;28;20049;-64
2023/08/21 01:21:26;;;;;;;4.68;2.95;;;;;;;;;;5048879;28;20514;-64
2023/08/21 01:23:51;;;;;;;10.50;3.13;;;;;;;;;;5050563;28;20093;-64
2023/08/21 01:26:16;;;;;;;5.03;2.72;;;;;;;;;;5049398;28;20037;-64
2023/08/21 01:28:42;;;;;;;8.00;4.72;;;;;;;;;;5050512;28;20455;-67
2023/08/21 01:31:27;;;;;;;5.50;3.55;;;;;;;;;;5049538;28;20033;-63
2023/08/21 01:33:56;;;;;;;7.05;3.53;;;;;;;;;;5050498;28;20021;-65
2023/08/21 01:36:21;;;;;;;8.48;3.30;;;;;;;;;;5050153;28;20017;-64
2023/08/21 01:38:47;;;;;;;4.55;3.80;;;;;;;;;;5049384;28;20040;-65
2023/08/21 01:41:12;;;;;;;6.63;3.75;;;;;;;;;;5050631;28;20025;-65
2023/08/21 01:43:37;;;;;;;6.25;2.92;;;;;;;;;;5048783;28;20120;-65
2023/08/21 01:46:05;;;;;;;5.80;3.10;;;;;;;;;;5050345;28;20392;-65
2023/08/21 01:48:30;;;;;;;6.13;3.97;;;;;;;;;;5048593;28;20151;-66
2023/08/21 01:50:55;;;;;;;4.90;3.08;;;;;;;;;;5050345;28;20124;-65
2023/08/21 01:53:20;;;;;;;10.40;4.60;;;;;;;;;;5048974;28;20043;-65
2023/08/21 01:55:46;;;;;;;7.38;2.92;;;;;;;;;;5050198;28;20482;-65
2023/08/21 01:58:11;;;;;;;4.13;3.17;;;;;;;;;;5048694;28;20033;-65
2023/08/21 02:00:36;;;;;;;5.67;3.33;;;;;;;;;;5050013;28;20021;-64
2023/08/21 02:03:01;;;;;;;8.90;3.07;;;;;;;;;;5048934;28;20044;-65
2023/08/21 02:05:26;;;;;;;11.73;2.88;;;;;;;;;;5049903;28;20104;-65
2023/08/21 02:07:52;;;;;;;7.73;3.83;;;;;;;;;;5047415;28;20044;-64
2023/08/21 02:10:17;;;;;;;4.50;2.30;;;;;;;;;;5050009;28;20478;-72
2023/08/21 02:12:42;;;;;;;4.50;2.63;;;;;;;;;;5048392;28;20403;-61
2023/08/21 02:15:08;;;;;;;3.53;2.50;;;;;;;;;;5050180;28;20021;-64
2023/08/21 02:17:33;;;;;;;7.03;3.47;;;;;;;;;;5048302;28;20032;-63
2023/08/21 02:19:58;;;;;;;6.40;2.87;;;;;;;;;;5049667;28;20041;-64
2023/08/21 02:22:23;;;;;;;6.07;2.47;;;;;;;;;;5048580;28;20392;-63
2023/08/21 02:24:48;;;;;;;8.87;4.00;;;;;;;;;;5050519;28;20017;-64
2023/08/21 02:27:13;;;;;;;8.13;3.27;;;;;;;;;;5048452;28;20451;-63
2023/08/21 02:29:38;;;;;;;5.10;3.13;;;;;;;;;;5049941;28;20082;-64
2023/08/21 02:32:04;;;;;;;4.70;3.13;;;;;;;;;;5048530;28;20039;-64
2023/08/21 02:34:29;;;;;;;5.30;2.72;;;;;;;;;;5052138;28;20821;-64
2023/08/21 02:36:54;;;;;;;4.72;3.70;;;;;;;;;;5052728;28;20033;-64
2023/08/21 02:39:19;;;;;;;7.17;3.53;;;;;;;;;;5053823;28;20017;-64
2023/08/21 02:41:44;;;;;;;3.30;3.00;;;;;;;;;;5051961;28;20041;-64
2023/08/21 02:44:09;;;;;;;5.43;3.10;;;;;;;;;;5053978;28;20024;-64
2023/08/21 02:46:36;;;;;;;5.27;3.93;;;;;;;;;;5052209;28;20455;-63
2023/08/21 02:49:01;;;;;;;4.28;3.10;;;;;;;;;;5053641;28;20092;-63
2023/08/21 02:51:26;;;;;;;5.45;2.72;;;;;;;;;;5052323;28;20112;-63
2023/08/21 02:53:51;;;;;;;6.53;4.07;;;;;;;;;;5054134;28;20021;-63
2023/08/21 02:56:17;;;;;;;7.37;3.00;;;;;;;;;;5051807;28;20517;-63
2023/08/21 02:58:42;;;;;;;4.93;2.53;;;;;;;;;;5053580;28;20032;-63
2023/08/21 03:01:07;;;;;;;10.05;3.22;;;;;;;;;;5052175;28;20082;-63
2023/08/21 03:03:33;;;;;;;6.97;3.90;;;;;;;;;;5053472;28;20507;-63
2023/08/21 03:05:59;;;;;;;7.60;3.03;;;;;;;;;;5051927;28;20036;-63
2023/08/21 03:08:24;;;;;;;8.82;3.60;;;;;;;;;;5052985;28;20489;-63
2023/08/21 03:10:49;;;;;;;7.15;3.25;;;;;;;;;;5051895;28;20037;-64
2023/08/21 03:13:14;;;;;;;5.37;3.10;;;;;;;;;;5053428;28;20025;-63
2023/08/21 03:15:39;;;;;;;4.82;3.53;;;;;;;;;;5051253;28;20112;-63
2023/08/21 03:18:04;;;;;;;5.70;2.75;;;;;;;;;;5053191;28;20029;-64
2023/08/21 03:20:29;;;;;;;4.40;3.03;;;;;;;;;;5052520;28;20049;-64
2023/08/21 03:22:55;;;;;;;7.00;2.58;;;;;;;;;;5030867;28;20456;-63
2023/08/21 03:25:20;;;;;;;4.57;2.88;;;;;;;;;;5033206;28;20419;-63
2023/08/21 03:27:49;;;;;;;7.68;4.65;;;;;;;;;;5031397;28;20042;-63
2023/08/21 03:30:14;;;;;;;4.38;2.85;;;;;;;;;;5033272;28;20389;-63
2023/08/21 03:32:39;;;;;;;6.03;3.28;;;;;;;;;;5031556;28;20044;-63
2023/08/21 03:35:05;;;;;;;7.00;3.40;;;;;;;;;;5032534;28;20033;-64
2023/08/21 03:37:30;;;;;;;7.50;3.08;;;;;;;;;;5031195;28;20053;-63
2023/08/21 03:39:55;;;;;;;4.97;2.67;;;;;;;;;;5032905;28;20399;-63
2023/08/21 03:42:20;;;;;;;6.28;3.83;;;;;;;;;;5030982;28;20029;-63
2023/08/21 03:44:48;;;;;;;6.05;3.30;;;;;;;;;;5032622;28;20026;-63
2023/08/21 03:47:13;;;;;;;7.70;3.47;;;;;;;;;;5031481;28;20045;-63
2023/08/21 03:49:39;;;;;;;4.20;3.17;;;;;;;;;;5032410;28;20540;-64
2023/08/21 03:52:04;;;;;;;8.07;3.70;;;;;;;;;;5031330;28;20029;-64
2023/08/21 03:54:29;;;;;;;7.97;3.90;;;;;;;;;;5032440;28;20161;-64
2023/08/21 03:56:54;;;;;;;5.35;4.55;;;;;;;;;;5030992;28;20045;-64
2023/08/21 03:59:20;;;;;;;10.75;4.53;;;;;;;;;;5032189;28;20041;-65
2023/08/21 04:01:45;;;;;;;5.90;3.00;;;;;;;;;;5031379;28;20595;-64
2023/08/21 04:04:10;;;;;;;5.22;3.85;;;;;;;;;;5032258;28;20021;-64
2023/08/21 04:06:36;;;;;;;10.60;3.83;;;;;;;;;;5030551;28;20088;-64
2023/08/21 04:09:01;;;;;;;8.13;4.03;;;;;;;;;;5032295;28;20079;-65
2023/08/21 04:11:26;;;;;;;10.02;3.72;;;;;;;;;;5030086;28;20120;-64
2023/08/21 04:13:51;;;;;;;9.03;4.50;;;;;;;;;;5032385;28;20052;-64
2023/08/21 04:16:17;;;;;;;13.07;4.33;;;;;;;;;;5030693;28;20458;-64
2023/08/21 04:18:42;;;;;;;4.45;3.45;;;;;;;;;;5031751;28;20543;-64
2023/08/21 04:21:08;;;;;;;8.33;4.00;;;;;;;;;;5031078;28;20215;-64
2023/08/21 04:23:33;;;;;;;9.10;3.38;;;;;;;;;;5031988;28;20025;-64
2023/08/21 04:26:02;;;;;;;7.83;3.63;;;;;;;;;;5030352;28;20381;-63
2023/08/21 04:28:29;;;;;;;7.63;3.78;;;;;;;;;;5032069;28;20029;-64
2023/08/21 04:30:57;;;;;;;6.13;4.68;;;;;;;;;;5030310;28;20034;-63
2023/08/21 04:33:22;;;;;;;6.38;3.22;;;;;;;;;;5031390;28;20018;-63
2023/08/21 04:35:47;;;;;;;5.07;3.67;;;;;;;;;;5030487;28;20026;-64
2023/08/21 04:38:12;;;;;;;8.15;3.50;;;;;;;;;;5032140;28;20488;-63
2023/08/21 04:40:37;;;;;;;9.32;4.15;;;;;;;;;;5029912;28;20030;-63
2023/08/21 04:43:03;;;;;;;12.82;3.88;;;;;;;;;;5031921;28;20020;-63
2023/08/21 04:45:28;;;;;;;5.70;3.53;;;;;;;;;;5031602;28;20384;-63
2023/08/21 04:47:53;;;;;;;6.20;3.87;;;;;;;;;;5029935;28;20044;-64
2023/08/21 04:50:18;;;;;;;10.90;3.50;;;;;;;;;;5031533;28;20420;-67
2023/08/21 04:52:43;;;;;;;4.27;3.80;;;;;;;;;;5028445;28;20168;-66
2023/08/21 04:55:08;;;;;;;7.47;3.57;;;;;;;;;;5030955;28;20499;-63
2023/08/21 04:57:34;;;;;;;7.33;3.63;;;;;;;;;;5028802;28;20479;-64
2023/08/21 04:59:59;;;;;;;4.77;3.87;;;;;;;;;;5030873;28;20404;-64
2023/08/21 05:02:24;;;;;;;5.38;4.15;;;;;;;;;;5028056;28;20475;-63
2023/08/21 05:04:49;;;;;;;5.57;4.07;;;;;;;;;;5031348;28;20029;-63
2023/08/21 05:07:15;;;;;;;8.45;4.50;;;;;;;;;;5029055;28;20041;-63
2023/08/21 05:09:40;;;;;;;7.57;3.72;;;;;;;;;;5030648;28;20032;-63
2023/08/21 05:12:07;;;;;;;5.97;4.37;;;;;;;;;;5053938;28;20503;-73
2023/08/21 05:14:32;;;;;;;6.45;3.55;;;;;;;;;;5050932;28;20435;-64
2023/08/21 05:16:57;;;;;;;5.27;4.10;;;;;;;;;;5049441;28;20453;-64
2023/08/21 05:19:22;;;;;;;7.13;4.43;;;;;;;;;;5050608;28;20124;-63
2023/08/21 05:21:47;;;;;;;6.13;4.23;;;;;;;;;;5049656;28;20433;-63
2023/08/21 05:24:12;;;;;;;8.07;4.57;;;;;;;;;;5050971;28;20802;-63
2023/08/21 05:26:38;;;;;;;9.98;4.55;;;;;;;;;;5048989;28;20048;-64
2023/08/21 05:29:03;;;;;;;18.95;4.20;;;;;;;;;;5050821;28;20096;-65
2023/08/21 05:31:28;;;;;;;18.57;8.67;;;;;;;;;;5049242;28;20503;-65
2023/08/21 05:33:54;;;;;;;10.32;6.07;;;;;;;;;;5050332;28;20078;-64
2023/08/21 05:36:19;;;;;;;12.33;7.83;;;;;;;;;;5048714;28;20124;-64
2023/08/21 05:38:44;;;;;;;11.17;6.33;;;;;;;;;;5050451;28;20518;-64
2023/08/21 05:41:10;;;;;;;9.85;4.95;;;;;;;;;;5046398;28;20484;-68
2023/08/21 05:43:35;;;;;;;9.82;6.15;;;;;;;;;;5034165;28;20483;-64
2023/08/21 05:46:00;;;;;;;10.17;6.23;;;;;;;;;;5034995;28;20041;-64
2023/08/21 05:48:25;;;;;;;15.30;6.38;;;;;;;;;;5028905;28;20333;-66
2023/08/21 05:50:51;;;;;;;8.80;4.17;;;;;;;;;;5025431;28;20034;-64
2023/08/21 05:53:16;;;;;;;11.15;4.75;;;;;;;;;;5030021;28;20021;-58
2023/08/21 05:55:41;;;;;;;15.35;4.80;;;;;;;;;;5028380;28;20026;-61
2023/08/21 05:58:06;;;;;;;11.82;4.13;;;;;;;;;;5030651;28;20082;-60
2023/08/21 06:00:33;;;;;;;8.40;4.50;;;;;;;;;;5029252;28;20014;-60
2023/08/21 06:02:58;;;;;;;8.60;4.57;;;;;;;;;;5030495;28;20437;-60
2023/08/21 06:05:23;;;;;;;7.13;4.07;;;;;;;;;;5029886;28;20104;-60
2023/08/21 06:07:48;;;;;;;8.60;4.35;;;;;;;;;;5028730;28;20037;-60
2023/08/21 06:10:14;;;;;;;9.30;4.05;;;;;;;;;;5029733;28;20029;-60
2023/08/21 06:12:40;;;;;;;7.57;4.55;;;;;;;;;;5028668;28;20030;-60
2023/08/21 06:15:09;;;;;;;17.08;5.18;;;;;;;;;;5030410;28;20029;-60
2023/08/21 06:17:34;;;;;;;;;;;;;;;;;;5028809;28;20038;-60
2023/08/21 06:19:59;;;;;;;15.38;4.85;;;;;;;;;;5030216;28;19942;-60
2023/08/21 06:22:24;;;;;;;19.63;6.10;;;;;;;;;;5028667;28;20048;-60
2023/08/21 06:24:50;;;;;;;22.77;6.60;;;;;;;;;;5029701;28;20029;-67
2023/08/21 06:27:15;;;;;;;7.23;3.30;;;;;;;;;;5028548;28;20072;-60
2023/08/21 06:29:40;;;;;;;15.33;3.83;;;;;;;;;;5029976;28;20465;-60
2023/08/21 06:32:05;;;;;;;9.75;4.47;;;;;;;;;;5028228;28;20448;-61
2023/08/21 06:34:30;;;;;;;7.10;4.60;;;;;;;;;;5030060;28;20029;-60
2023/08/21 06:36:56;;;;;;;12.07;5.53;;;;;;;;;;5039696;28;20035;-60
2023/08/21 06:39:21;;;;;;;12.43;3.50;;;;;;;;;;5049506;28;20096;-60
2023/08/21 06:41:46;;;;;;;8.17;4.83;;;;;;;;;;5037639;28;20451;-60
2023/08/21 06:44:11;;;;;;;5.25;3.30;;;;;;;;;;5029679;28;20531;-60
2023/08/21 06:46:36;;;;;;;13.30;3.63;;;;;;;;;;5027865;28;20030;-60
2023/08/21 06:49:02;;;;;;;12.15;3.30;;;;;;;;;;5030172;28;20075;-60
2023/08/21 06:51:27;;;;;;;6.88;3.13;;;;;;;;;;5027811;28;20033;-60
2023/08/21 06:53:52;;;;;;;9.00;3.80;;;;;;;;;;5024354;28;20025;-60
2023/08/21 06:56:17;;;;;;;12.25;4.47;;;;;;;;;;5027781;28;20095;-60
2023/08/21 06:58:43;;;;;;;12.23;3.73;;;;;;;;;;5030112;28;20021;-62
2023/08/21 07:01:08;;;;;;;5.07;2.67;;;;;;;;;;5044145;28;20045;-62
2023/08/21 07:03:33;;;;;;;6.17;2.70;;;;;;;;;;5029949;28;20500;-62
2023/08/21 07:05:59;;;;;;;4.35;1.60;;;;;;;;;;5028866;28;20095;-61
2023/08/21 07:08:25;;;;;;;8.02;2.90;;;;;;;;;;5029135;28;20039;-59
2023/08/21 07:10:50;;;;;;;13.05;2.83;;;;;;;;;;5037508;28;20120;-61
2023/08/21 07:13:16;;;;;;;5.63;3.03;;;;;;;;;;5027471;28;20056;-61
2023/08/21 07:15:41;;;;;;;8.13;2.83;;;;;;;;;;5032587;28;20045;-60
2023/08/21 07:18:07;;;;;;;9.93;2.33;;;;;;;;;;5026092;28;20025;-60
2023/08/21 07:20:32;;;;;;;4.07;1.75;;;;;;;;;;5028602;28;20455;-60
2023/08/21 07:22:58;;;;;;;9.27;3.13;;;;;;;;;;5053108;28;20024;-62
2023/08/21 07:25:24;;;;;;;7.55;4.22;;;;;;;;;;5053329;28;20091;-61
2023/08/21 07:27:50;;;;;;;8.55;3.15;;;;;;;;;;5052034;28;20036;-60
2023/08/21 07:30:17;;;;;;;8.23;3.92;;;;;;;;;;5053410;28;20021;-61
2023/08/21 07:32:42;;;;;;;10.63;3.35;;;;;;;;;;5052416;28;20041;-64
2023/08/21 07:35:08;;;;;;;7.93;2.20;;;;;;;;;;5053885;28;20147;-64
2023/08/21 07:37:33;;;;;;;4.95;2.10;;;;;;;;;;5050273;28;20033;-74
2023/08/21 07:39:58;;;;;;;9.30;2.43;;;;;;;;;;5053413;28;20028;-61
2023/08/21 07:42:23;;;;;;;5.43;2.50;;;;;;;;;;5051641;28;20040;-60
2023/08/21 07:44:48;;;;;;;8.00;2.47;;;;;;;;;;5053204;28;20024;-61
2023/08/21 07:47:14;;;;;;;7.38;4.18;;;;;;;;;;5051345;28;20139;-61
2023/08/21 07:49:39;;;;;;;6.30;2.13;;;;;;;;;;5052945;28;20108;-60
2023/08/21 07:52:04;;;;;;;16.93;6.83;;;;;;;;;;5051569;28;20036;-61
2023/08/21 07:54:29;;;;;;;7.13;2.67;;;;;;;;;;5052499;28;20468;-61
2023/08/21 07:56:55;;;;;;;6.17;2.40;;;;;;;;;;5051579;28;20112;-61
2023/08/21 07:59:20;;;;;;;39.87;4.73;;;;;;;;;;5052591;28;20622;-61
2023/08/21 08:01:45;;;;;;;5.20;3.17;;;;;;;;;;5050847;28;20036;-61
2023/08/21 08:04:10;;;;;;;3.33;1.67;;;;;;;;;;5052700;28;20021;-61
2023/08/21 08:06:36;;;;;;;6.03;1.95;;;;;;;;;;5051093;28;20403;-64
2023/08/21 08:09:01;;;;;;;7.13;1.80;;;;;;;;;;5051967;28;20012;-62
2023/08/21 08:11:26;;;;;;;3.17;1.93;;;;;;;;;;5050689;28;20409;-69
2023/08/21 08:13:51;;;;;;;4.87;1.33;;;;;;;;;;5052547;28;20038;-61
2023/08/21 08:16:17;;;;;;;8.37;1.93;;;;;;;;;;5050184;28;20455;-61
2023/08/21 08:18:42;;;;;;;7.57;1.63;;;;;;;;;;5046865;28;20238;-61
2023/08/21 08:21:07;;;;;;;9.23;2.00;;;;;;;;;;5049872;28;20070;-61
2023/08/21 08:23:32;;;;;;;2.80;1.50;;;;;;;;;;5058116;28;20046;-61
2023/08/21 08:25:57;;;;;;;4.17;1.67;;;;;;;;;;5052899;28;20077;-61
2023/08/21 08:28:23;;;;;;;5.23;1.80;;;;;;;;;;5052323;28;20021;-61
2023/08/21 08:30:48;;;;;;;6.80;2.33;;;;;;;;;;5049414;28;20040;-60
2023/08/21 08:33:13;;;;;;;8.47;1.73;;;;;;;;;;5051615;28;20036;-60
2023/08/21 08:35:40;;;;;;;7.97;2.72;;;;;;;;;;5046908;28;20024;-60
2023/08/21 08:38:05;;;;;;;4.55;2.17;;;;;;;;;;5031764;28;20100;-61
2023/08/21 08:40:30;;;;;;;12.37;3.00;;;;;;;;;;5048426;28;20100;-60
2023/08/21 08:42:56;;;;;;;4.15;2.92;;;;;;;;;;5052164;28;20456;-64
2023/08/21 08:45:27;;;;;;;5.80;2.47;;;;;;;;;;5051401;28;20035;-63
2023/08/21 08:47:53;;;;;;;9.50;3.35;;;;;;;;;;5050085;28;20120;-64
2023/08/21 08:50:18;;;;;;;4.65;1.50;;;;;;;;;;5051374;28;20159;-61
2023/08/21 08:52:44;;;;;;;5.90;2.70;;;;;;;;;;5050079;28;20116;-61
2023/08/21 08:55:09;;;;;;;7.78;2.33;;;;;;;;;;5051685;28;20472;-61
2023/08/21 08:57:34;;;;;;;5.17;1.93;;;;;;;;;;5050090;28;20032;-60
2023/08/21 09:00:00;;;;;;;2.70;1.50;;;;;;;;;;5051354;28;20490;-60
2023/08/21 09:02:26;;;;;;;5.25;2.33;;;;;;;;;;5047605;28;20029;-61
2023/08/21 09:04:51;;;;;;;7.47;1.77;;;;;;;;;;5048557;28;20028;-59
2023/08/21 09:07:17;;;;;;;7.17;1.73;;;;;;;;;;5048533;28;20056;-60
2023/08/21 09:09:45;;;;;;;10.82;2.88;;;;;;;;;;5049541;28;20446;-60
2023/08/21 09:12:10;;;;;;;;;;;;;;;;;;5049018;28;20120;-60
2023/08/21 09:14:35;;;;;;;5.35;2.22;;;;;;;;;;5050143;28;20015;-60
2023/08/21 09:17:04;;;;;;;7.50;2.03;;;;;;;;;;5048831;28;20033;-66
2023/08/21 09:19:29;;;;;;;5.47;1.80;;;;;;;;;;5050492;28;20155;-60
2023/08/21 09:21:54;;;;;;;8.95;1.90;;;;;;;;;;5049556;28;20032;-60
2023/08/21 09:24:19;;;;;;;2.47;1.40;;;;;;;;;;5050803;28;20165;-61
2023/08/21 09:26:44;;;;;;;7.30;3.38;;;;;;;;;;5049974;28;20044;-61
2023/08/21 09:29:10;;;;;;;3.50;2.03;;;;;;;;;;5050764;28;20377;-60
2023/08/21 09:31:36;;;;;;;6.55;2.10;;;;;;;;;;5049386;28;20040;-62
2023/08/21 09:34:05;;;;;;;4.82;2.22;;;;;;;;;;5050968;28;20456;-60
2023/08/21 09:36:30;;;;;;;6.70;2.33;;;;;;;;;;5049131;28;20194;-60
2023/08/21 09:38:56;;;;;;;5.53;0.90;;;;;;;;;;5051403;28;20503;-60
2023/08/21 09:41:22;;;;;;;6.30;1.93;;;;;;;;;;5049692;28;20072;-60
2023/08/21 09:43:47;;;;;;;3.42;1.92;;;;;;;;;;5048910;28;20028;-60
2023/08/21 09:46:25;;;;;;;5.90;1.88;;;;;;;;;;5049299;28;20041;-60
2023/08/21 09:48:54;;;;;;;6.18;2.38;;;;;;;;;;5050502;28;20632;-60
2023/08/21 09:51:19;;;;;;;3.55;1.42;;;;;;;;;;5048075;28;20523;-60
2023/08/21 09:53:44;;;;;;;4.27;1.80;;;;;;;;;;5050892;28;20020;-61
2023/08/21 09:56:10;;;;;;;10.23;2.90;;;;;;;;;;5049340;28;20119;-60
2023/08/21 09:58:35;;;;;;;7.00;2.08;;;;;;;;;;5049391;28;20132;-60
2023/08/21 10:01:02;;;;;;;4.95;1.75;;;;;;;;;;5048961;28;20151;-60
2023/08/21 10:03:29;;;;;;;10.23;2.83;;;;;;;;;;5042299;28;20028;-61
2023/08/21 10:05:55;;;;;;;6.72;2.08;;;;;;;;;;5029005;28;20444;-62
2023/08/21 10:08:25;;;;;;;8.25;3.22;;;;;;;;;;5048892;28;20021;-60
2023/08/21 10:10:51;;;;;;;7.95;2.30;;;;;;;;;;5044843;28;20064;-60
2023/08/21 10:13:16;;;;;;;5.35;1.42;;;;;;;;;;5046608;28;20048;-60
2023/08/21 10:15:41;;;;;;;4.00;1.33;;;;;;;;;;5048753;28;20079;-60
2023/08/21 10:18:20;;;;;;;4.13;2.05;;;;;;;;;;5049852;28;20025;-60
2023/08/21 10:20:45;;;;;;;4.63;1.63;;;;;;;;;;4989362;28;20057;-61
2023/08/21 10:23:22;;;;;;;6.32;1.88;;;;;;;;;;4991330;28;20072;-60
2023/08/21 10:25:48;;;;;;;3.73;1.83;;;;;;;;;;5002478;28;20109;-60
2023/08/21 10:28:13;;;;;;;4.70;1.83;;;;;;;;;;5010195;28;20018;-60
2023/08/21 10:30:38;;;;;;;6.15;2.45;;;;;;;;;;5009316;28;20030;-60
2023/08/21 10:33:03;;;;;;;6.83;2.67;;;;;;;;;;5010567;28;20379;-60
2023/08/21 10:35:30;;;;;;;6.73;2.20;;;;;;;;;;5008511;28;20037;-64
2023/08/21 10:38:15;;;;;;;8.80;2.67;;;;;;;;;;5010637;28;20009;-61
2023/08/21 10:40:41;;;;;;;11.57;2.53;;;;;;;;;;5008680;28;20045;-60
2023/08/21 10:43:25;;;;;;;5.45;2.35;;;;;;;;;;5009664;28;20741;-61
2023/08/21 10:45:54;;;;;;;3.45;1.88;;;;;;;;;;5008507;28;20409;-61
2023/08/21 10:48:19;;;;;;;7.63;2.47;;;;;;;;;;5010090;28;20489;-60
2023/08/21 10:50:44;;;;;;;3.77;1.70;;;;;;;;;;5008960;28;20022;-60
2023/08/21 10:53:09;;;;;;;6.80;1.90;;;;;;;;;;5025749;28;20044;-60
2023/08/21 10:55:36;;;;;;;8.57;2.07;;;;;;;;;;5008609;28;20521;-60
2023/08/21 10:58:02;;;;;;;5.22;1.92;;;;;;;;;;5014220;28;20423;-62
2023/08/21 11:00:27;;;;;;;5.35;1.83;;;;;;;;;;5012869;28;20018;-61
2023/08/21 11:02:53;;;;;;;5.73;1.90;;;;;;;;;;5012817;28;20103;-61
2023/08/21 11:05:18;;;;;;;4.60;1.43;;;;;;;;;;5013960;28;20534;-60
2023/08/21 11:07:44;;;;;;;4.97;2.30;;;;;;;;;;5012897;28;20041;-60
2023/08/21 11:10:13;;;;;;;6.22;2.55;;;;;;;;;;5013661;28;20116;-60
2023/08/21 11:12:47;;;;;;;5.85;2.22;;;;;;;;;;5012018;28;20512;-60
2023/08/21 11:15:12;;;;;;;7.82;3.28;;;;;;;;;;5013937;28;20021;-60
2023/08/21 11:17:37;;;;;;;6.40;2.57;;;;;;;;;;5012405;28;20061;-61
2023/08/21 11:20:04;;;;;;;6.07;1.77;;;;;;;;;;5043628;28;20530;-61
2023/08/21 11:22:31;;;;;;;3.33;1.88;;;;;;;;;;5051949;28;20029;-61
2023/08/21 11:24:56;;;;;;;3.10;1.73;;;;;;;;;;5053050;28;20100;-60
2023/08/21 11:27:21;;;;;;;2.70;1.20;;;;;;;;;;5049820;28;20179;-61
2023/08/21 11:29:50;;;;;;;2.30;1.23;;;;;;;;;;5053439;28;20386;-61
2023/08/21 11:32:17;;;;;;;3.10;1.10;;;;;;;;;;5051463;28;20064;-61
2023/08/21 11:34:44;;;;;;;2.80;1.55;;;;;;;;;;5052540;28;20174;-60
2023/08/21 11:37:09;;;;;;;2.80;1.52;;;;;;;;;;5052149;28;20032;-61
2023/08/21 11:39:53;;;;;;;6.22;1.63;;;;;;;;;;5053131;28;20251;-60
2023/08/21 11:42:37;;;;;;;4.57;1.67;;;;;;;;;;5049963;28;20047;-60
2023/08/21 11:45:02;;;;;;;5.32;1.40;;;;;;;;;;5053037;28;20094;-60
2023/08/21 11:47:31;;;;;;;14.68;2.78;;;;;;;;;;5051564;28;20500;-61
2023/08/21 11:49:57;;;;;;;6.63;2.95;;;;;;;;;;5053004;28;20013;-60
2023/08/21 11:52:25;;;;;;;3.57;1.30;;;;;;;;;;5051596;28;20029;-61
2023/08/21 11:54:51;;;;;;;7.65;2.17;;;;;;;;;;5051251;28;20029;-61
2023/08/21 11:57:17;;;;;;;4.70;2.20;;;;;;;;;;5050778;28;20033;-61
2023/08/21 11:59:42;;;;;;;6.35;1.80;;;;;;;;;;5052643;28;20028;-61
2023/08/21 12:02:14;;;;;;;7.40;2.33;;;;;;;;;;5051618;28;20127;-60
2023/08/21 12:04:39;;;;;;;3.10;1.52;;;;;;;;;;5052318;28;20435;-61
2023/08/21 12:07:05;;;;;;;5.23;1.77;;;;;;;;;;5050710;28;20033;-61
2023/08/21 12:09:30;;;;;;;4.18;1.73;;;;;;;;;;5052306;28;20542;-61
2023/08/21 12:11:55;;;;;;;4.33;1.93;;;;;;;;;;5050924;28;20035;-60
2023/08/21 12:14:20;;;;;;;5.95;1.83;;;;;;;;;;5052037;28;20415;-61
2023/08/21 12:16:45;;;;;;;4.47;1.92;;;;;;;;;;5050530;28;20037;-61
2023/08/21 12:19:11;;;;;;;8.17;1.70;;;;;;;;;;5051889;28;20049;-61
2023/08/21 12:21:37;;;;;;;6.15;1.73;;;;;;;;;;5051045;28;20037;-61
2023/08/21 12:24:03;;;;;;;7.55;1.60;;;;;;;;;;5052511;28;20017;-61
2023/08/21 12:26:28;;;;;;;2.88;1.17;;;;;;;;;;5048604;28;20104;-61
2023/08/21 12:28:53;;;;;;;3.10;1.20;;;;;;;;;;5051820;28;20017;-61
2023/08/21 12:31:18;;;;;;;4.67;1.83;;;;;;;;;;5047641;28;20507;-61
2023/08/21 12:33:44;;;;;;;7.03;1.63;;;;;;;;;;5050083;28;20920;-60
2023/08/21 12:36:09;;;;;;;4.13;1.87;;;;;;;;;;5050273;28;20037;-61
2023/08/21 12:38:34;;;;;;;5.70;1.57;;;;;;;;;;5051402;28;20017;-61
2023/08/21 12:41:01;;;;;;;7.00;1.40;;;;;;;;;;5049759;28;20094;-60
2023/08/21 12:43:26;;;;;;;6.57;2.47;;;;;;;;;;5051590;28;20104;-61
2023/08/21 12:45:51;;;;;;;5.00;1.57;;;;;;;;;;5049132;28;20137;-58
2023/08/21 12:48:16;;;;;;;2.30;1.37;;;;;;;;;;5051475;28;20021;-59
2023/08/21 12:50:42;;;;;;;2.28;0.90;;;;;;;;;;5049960;28;20101;-58
2023/08/21 12:53:07;;;;;;;8.67;2.47;;;;;;;;;;5051505;28;20032;-58
2023/08/21 12:55:33;;;;;;;10.85;1.73;;;;;;;;;;5050078;28;20025;-58
2023/08/21 12:57:58;;;;;;;10.03;2.90;;;;;;;;;;5050913;28;20104;-64
2023/08/21 13:00:23;;;;;;;3.53;2.20;;;;;;;;;;5050770;28;20479;-59
2023/08/21 13:02:48;;;;;;;4.73;2.03;;;;;;;;;;5050033;28;20039;-59
2023/08/21 13:05:14;;;;;;;8.50;3.55;;;;;;;;;;5050669;28;20427;-59
2023/08/21 13:07:39;;;;;;;2.38;1.65;;;;;;;;;;5049726;28;20037;-59
2023/08/21 13:10:04;;;;;;;4.97;2.40;;;;;;;;;;5051366;28;20021;-59
2023/08/21 13:12:30;;;;;;;6.90;2.15;;;;;;;;;;5049285;28;20440;-59
2023/08/21 13:14:55;;;;;;;5.13;1.17;;;;;;;;;;5051260;28;20021;-60
2023/08/21 13:17:20;;;;;;;6.03;2.00;;;;;;;;;;5047924;28;20052;-59
2023/08/21 13:19:45;;;;;;;5.47;2.28;;;;;;;;;;5050005;28;20388;-59
2023/08/21 13:22:10;;;;;;;6.37;2.37;;;;;;;;;;5049800;28;20037;-59
2023/08/21 13:24:36;;;;;;;8.10;2.93;;;;;;;;;;5050104;28;20063;-59
2023/08/21 13:27:01;;;;;;;6.40;2.07;;;;;;;;;;5047450;28;20559;-60
2023/08/21 13:29:26;;;;;;;5.70;2.03;;;;;;;;;;5050914;28;20468;-60
2023/08/21 13:31:51;;;;;;;8.97;1.63;;;;;;;;;;5047994;28;20521;-59
2023/08/21 13:34:16;;;;;;;3.60;1.33;;;;;;;;;;5050392;28;20021;-59
2023/08/21 13:36:41;;;;;;;8.73;2.78;;;;;;;;;;5049427;28;20083;-59
2023/08/21 13:39:08;;;;;;;5.20;1.97;;;;;;;;;;5049422;28;20021;-59
2023/08/21 13:41:33;;;;;;;9.65;2.92;;;;;;;;;;5048660;28;21025;-59
2023/08/21 13:43:58;;;;;;;4.40;1.77;;;;;;;;;;5066023;28;20113;-59
2023/08/21 13:46:23;;;;;;;3.13;1.87;;;;;;;;;;5049204;28;20096;-60
2023/08/21 13:48:48;;;;;;;2.93;1.53;;;;;;;;;;5050664;28;20024;-60
2023/08/21 13:51:14;;;;;;;6.53;2.53;;;;;;;;;;5048733;28;20472;-59
2023/08/21 13:53:39;;;;;;;2.55;1.77;;;;;;;;;;5050308;28;20019;-59
2023/08/21 13:56:04;;;;;;;7.53;1.60;;;;;;;;;;5050168;28;20028;-59
2023/08/21 13:58:29;;;;;;;2.33;1.30;;;;;;;;;;5048941;28;20112;-59
2023/08/21 14:00:57;;;;;;;6.35;2.00;;;;;;;;;;5049861;28;20435;-59
2023/08/21 14:03:22;;;;;;;3.45;1.35;;;;;;;;;;5047527;28;20090;-59
2023/08/21 14:05:47;;;;;;;3.92;1.48;;;;;;;;;;5050426;28;20028;-59
2023/08/21 14:08:12;;;;;;;5.57;2.47;;;;;;;;;;5048174;28;20084;-62
2023/08/21 14:10:37;;;;;;;6.75;1.92;;;;;;;;;;5048038;28;20527;-61
2023/08/21 14:13:03;;;;;;;7.80;3.20;;;;;;;;;;5048431;28;20090;-61
2023/08/21 14:15:28;;;;;;;4.80;2.00;;;;;;;;;;5048441;28;20029;-61
2023/08/21 14:17:54;;;;;;;6.43;2.28;;;;;;;;;;5047889;28;20043;-62
2023/08/21 14:20:19;;;;;;;5.97;1.60;;;;;;;;;;5049769;28;20060;-62
2023/08/21 14:22:44;;;;;;;7.33;2.57;;;;;;;;;;5048302;28;20427;-62
2023/08/21 14:25:10;;;;;;;4.28;1.42;;;;;;;;;;5050236;28;20032;-61
2023/08/21 14:27:35;;;;;;;10.68;2.33;;;;;;;;;;5048893;28;20907;-61
2023/08/21 14:30:00;;;;;;;6.13;2.60;;;;;;;;;;5051237;28;20099;-61
2023/08/21 14:32:26;;;;;;;8.53;1.80;;;;;;;;;;5052521;28;20037;-62